createdAt,value
2023-03-26T00:01:16.517Z,13.13
2023-03-26T00:03:47.333Z,13.32
2023-03-26T00:06:16.085Z,12.02
2023-03-26T00:08:45.217Z,14.57
2023-03-26T00:11:14.511Z,13.80
2023-03-26T00:13:43.816Z,13.55
2023-03-26T00:16:13.839Z,15.20
2023-03-26T00:18:42.671Z,15.80
2023-03-26T00:21:13.614Z,14.35
2023-03-26T00:23:40.386Z,13.50
2023-03-26T00:26:10.635Z,14.90
2023-03-26T00:28:41.661Z,15.38
2023-03-26T00:31:13.675Z,14.55
2023-03-26T00:33:41.481Z,15.23
2023-03-26T00:36:12.056Z,15.55
2023-03-26T00:38:39.448Z,15.95
2023-03-26T00:41:08.361Z,17.38
2023-03-26T00:43:36.207Z,18.55
2023-03-26T00:46:03.254Z,18.30
2023-03-26T00:48:43.952Z,19.27
2023-03-26T00:51:12.151Z,19.48
2023-03-26T00:53:39.096Z,20.50
2023-03-26T00:56:08.082Z,22.08
2023-03-26T00:58:35.069Z,20.80
2023-03-26T01:01:05.829Z,21.70
2023-03-26T01:03:35.090Z,22.83
2023-03-26T01:06:08.290Z,20.75
2023-03-26T01:08:46.731Z,18.42
2023-03-26T01:11:28.215Z,19.30
2023-03-26T01:13:57.709Z,11.95
2023-03-26T01:16:31.928Z,13.57
2023-03-26T01:18:59.026Z,14.38
2023-03-26T01:21:30.450Z,13.18
2023-03-26T01:24:05.261Z,14.55
2023-03-26T01:26:50.041Z,13.38
2023-03-26T01:29:39.557Z,12.03
2023-03-26T01:32:17.715Z,12.35
2023-03-26T01:35:06.467Z,12.98
2023-03-26T01:37:52.681Z,11.23
2023-03-26T01:40:26.821Z,11.82
2023-03-26T01:43:21.034Z,10.63
2023-03-26T01:45:49.430Z,10.18
2023-03-26T01:48:16.363Z,10.30
2023-03-26T01:50:43.029Z,8.98
2023-03-26T01:53:11.806Z,8.15
2023-03-26T01:55:54.015Z,7.25
2023-03-26T01:58:36.394Z,5.43
2023-03-26T02:01:36.804Z,4.50
2023-03-26T02:04:08.239Z,4.40
2023-03-26T02:07:02.167Z,3.92
2023-03-26T02:09:32.201Z,2.67
2023-03-26T02:12:00.242Z,3.30
2023-03-26T02:14:29.728Z,2.55
2023-03-26T02:16:57.301Z,2.78
2023-03-26T02:19:24.714Z,2.20
2023-03-26T02:21:51.628Z,2.60
2023-03-26T02:24:21.412Z,2.28
2023-03-26T02:26:48.072Z,2.15
2023-03-26T02:29:20.568Z,2.58
2023-03-26T02:31:51.256Z,2.80
2023-03-26T02:34:17.980Z,2.53
2023-03-26T02:36:44.720Z,2.50
2023-03-26T02:39:12.139Z,1.65
2023-03-26T02:41:39.329Z,2.22
2023-03-26T02:44:06.373Z,1.70
2023-03-26T02:46:33.803Z,2.35
2023-03-26T02:49:00.717Z,1.60
2023-03-26T02:51:27.492Z,1.42
2023-03-26T02:53:54.980Z,1.45
2023-03-26T02:56:21.970Z,2.00
2023-03-26T02:58:48.662Z,2.03
2023-03-26T03:01:18.471Z,1.48
2023-03-26T03:03:47.462Z,2.15
2023-03-26T03:06:17.241Z,2.03
2023-03-26T03:08:46.118Z,2.08
2023-03-26T03:11:18.090Z,1.73
2023-03-26T03:13:45.816Z,2.35
2023-03-26T03:16:12.517Z,2.42
2023-03-26T03:18:39.228Z,2.22
2023-03-26T03:21:06.346Z,2.25
2023-03-26T03:23:32.988Z,1.75
2023-03-26T03:25:59.707Z,1.70
2023-03-26T03:28:26.905Z,1.80
2023-03-26T03:30:53.718Z,1.60
2023-03-26T03:33:20.962Z,1.83
2023-03-26T03:35:49.596Z,2.13
2023-03-26T03:38:19.678Z,1.95
2023-03-26T03:40:46.441Z,1.90
2023-03-26T03:43:13.128Z,1.75
2023-03-26T03:45:39.983Z,1.85
2023-03-26T03:48:06.684Z,2.30
2023-03-26T03:50:35.640Z,2.10
2023-03-26T03:53:03.245Z,2.85
2023-03-26T03:55:30.124Z,2.30
2023-03-26T03:57:58.402Z,2.15
2023-03-26T04:00:25.193Z,3.10
2023-03-26T04:02:54.494Z,2.78
2023-03-26T04:05:21.749Z,2.50
2023-03-26T04:07:48.468Z,2.90
2023-03-26T04:10:16.147Z,2.92
2023-03-26T04:12:42.788Z,3.63
2023-03-26T04:15:09.687Z,2.90
2023-03-26T04:17:42.980Z,3.40
2023-03-26T04:20:14.833Z,3.15
2023-03-26T04:22:45.737Z,3.63
2023-03-26T04:25:13.260Z,3.45
2023-03-26T04:27:41.853Z,3.00
2023-03-26T04:30:12.836Z,3.33
2023-03-26T04:32:40.536Z,3.38
2023-03-26T04:35:07.602Z,2.80
2023-03-26T04:37:39.688Z,3.60
2023-03-26T04:40:10.320Z,3.47
2023-03-26T04:42:41.854Z,3.08
2023-03-26T04:45:10.949Z,3.15
2023-03-26T04:47:39.644Z,3.03
2023-03-26T04:50:08.216Z,2.67
2023-03-26T04:52:35.177Z,2.95
2023-03-26T04:55:01.989Z,3.80
2023-03-26T04:57:50.839Z,3.15
2023-03-26T05:00:19.690Z,3.33
2023-03-26T05:02:50.175Z,3.63
2023-03-26T05:05:17.811Z,4.20
2023-03-26T05:07:44.489Z,4.72
2023-03-26T05:10:15.348Z,4.57
2023-03-26T05:12:42.199Z,6.80
2023-03-26T05:15:10.893Z,2.95
2023-03-26T05:17:41.742Z,4.10
2023-03-26T05:20:30.282Z,3.75
2023-03-26T05:22:57.354Z,2.63
2023-03-26T05:25:24.171Z,3.55
2023-03-26T05:27:50.979Z,2.90
2023-03-26T05:30:19.758Z,3.70
2023-03-26T05:32:49.038Z,3.40
2023-03-26T05:35:19.484Z,2.55
2023-03-26T05:37:46.934Z,2.80
2023-03-26T05:40:17.101Z,3.83
2023-03-26T05:42:44.509Z,3.63
2023-03-26T05:45:12.638Z,3.67
2023-03-26T05:47:39.386Z,3.13
2023-03-26T05:50:07.633Z,4.18
2023-03-26T05:52:34.687Z,4.18
2023-03-26T05:55:01.403Z,3.97
2023-03-26T05:57:30.599Z,4.25
2023-03-26T05:59:57.242Z,3.83
2023-03-26T06:02:24.273Z,3.47
2023-03-26T06:04:51.129Z,3.72
2023-03-26T06:07:18.819Z,3.40
2023-03-26T06:09:45.793Z,4.53
2023-03-26T06:12:13.808Z,6.10
2023-03-26T06:14:42.888Z,3.47
2023-03-26T06:17:10.315Z,2.75
2023-03-26T06:19:37.120Z,3.55
2023-03-26T06:22:04.436Z,3.40
2023-03-26T06:24:31.390Z,3.10
2023-03-26T06:26:58.063Z,4.43
2023-03-26T06:29:25.320Z,3.67
2023-03-26T06:31:51.925Z,3.58
2023-03-26T06:34:18.672Z,3.75
2023-03-26T06:36:45.322Z,2.95
2023-03-26T06:39:11.997Z,3.10
2023-03-26T06:41:38.665Z,3.20
2023-03-26T06:44:05.336Z,2.90
2023-03-26T06:46:32.067Z,3.33
2023-03-26T06:48:59.681Z,3.80
2023-03-26T06:51:26.446Z,2.92
2023-03-26T06:53:53.284Z,2.85
2023-03-26T06:56:20.009Z,2.95
2023-03-26T06:58:46.651Z,2.95
2023-03-26T07:01:13.525Z,2.40
2023-03-26T07:03:40.278Z,3.03
2023-03-26T07:06:07.554Z,2.80
2023-03-26T07:08:34.333Z,2.85
2023-03-26T07:11:00.975Z,2.88
2023-03-26T07:13:27.691Z,2.80
2023-03-26T07:15:55.553Z,2.72
2023-03-26T07:18:22.374Z,2.92
2023-03-26T07:20:49.335Z,2.90
2023-03-26T07:23:20.182Z,2.53
2023-03-26T07:25:48.405Z,2.58
2023-03-26T07:28:27.051Z,2.47
2023-03-26T07:31:11.820Z,3.33
2023-03-26T07:33:38.504Z,1.77
2023-03-26T07:36:36.693Z,3.00
2023-03-26T07:39:28.030Z,2.85
2023-03-26T07:42:06.053Z,2.65
2023-03-26T07:44:36.010Z,2.10
2023-03-26T07:47:11.281Z,2.72
2023-03-26T07:52:05.352Z,3.22
2023-03-26T07:54:32.278Z,2.13
2023-03-26T07:57:05.625Z,2.35
2023-03-26T07:59:37.506Z,2.33
2023-03-26T08:02:22.146Z,2.30
2023-03-26T08:05:05.318Z,2.45
2023-03-26T08:07:35.163Z,2.45
2023-03-26T08:10:20.819Z,2.45
2023-03-26T08:15:50.233Z,2.53
2023-03-26T08:18:28.032Z,2.08
2023-03-26T08:21:08.147Z,2.22
2023-03-26T08:23:53.742Z,3.22
2023-03-26T08:29:09.856Z,2.25
2023-03-26T08:31:39.408Z,3.00
2023-03-26T08:34:06.898Z,3.10
2023-03-26T08:36:33.752Z,4.10
2023-03-26T08:39:00.382Z,3.67
2023-03-26T08:41:45.596Z,4.28
2023-03-26T08:44:49.681Z,4.07
2023-03-26T08:47:19.525Z,5.28
2023-03-26T08:50:21.859Z,4.57
2023-03-26T08:53:16.123Z,4.60
2023-03-26T08:55:56.823Z,5.72
2023-03-26T08:58:23.488Z,6.00
2023-03-26T09:00:53.594Z,5.28
2023-03-26T09:03:27.970Z,6.43
2023-03-26T09:06:29.544Z,7.03
2023-03-26T09:09:19.083Z,5.93
2023-03-26T09:12:11.730Z,6.35
2023-03-26T09:15:16.345Z,7.53
2023-03-26T09:17:46.181Z,9.13
2023-03-26T09:20:49.974Z,8.15
2023-03-26T09:23:40.321Z,8.18
2023-03-26T09:26:19.107Z,9.20
2023-03-26T09:29:00.486Z,8.13
2023-03-26T09:31:39.332Z,8.02
2023-03-26T09:34:18.238Z,8.88
2023-03-26T09:37:14.312Z,10.02
2023-03-26T09:42:48.572Z,8.65
2023-03-26T09:45:38.802Z,9.90
2023-03-26T09:48:47.628Z,8.57
2023-03-26T09:51:27.732Z,10.23
2023-03-26T09:54:31.571Z,8.13
2023-03-26T09:57:17.154Z,9.93
2023-03-26T10:03:07.637Z,10.55
2023-03-26T10:05:58.666Z,8.82
2023-03-26T10:08:41.568Z,10.65
2023-03-26T10:11:27.683Z,10.10
2023-03-26T10:14:23.316Z,10.05
2023-03-26T10:17:07.054Z,11.05
2023-03-26T10:20:04.961Z,11.02
2023-03-26T10:22:36.036Z,10.18
2023-03-26T10:25:41.062Z,12.68
2023-03-26T10:28:41.365Z,9.82
2023-03-26T10:31:23.836Z,11.57
2023-03-26T10:34:28.611Z,11.18
2023-03-26T10:37:17.912Z,11.05
2023-03-26T10:39:59.249Z,10.73
2023-03-26T10:42:49.734Z,11.52
2023-03-26T10:45:55.631Z,10.85
2023-03-26T10:49:01.074Z,10.70
2023-03-26T10:51:36.450Z,8.13
2023-03-26T10:54:21.448Z,10.90
2023-03-26T10:56:50.480Z,11.05
2023-03-26T10:59:18.279Z,9.55
2023-03-26T11:02:18.728Z,9.23
2023-03-26T11:04:54.631Z,10.10
2023-03-26T11:07:47.127Z,10.00
2023-03-26T11:10:35.656Z,9.68
2023-03-26T11:13:13.062Z,9.32
2023-03-26T11:15:45.238Z,9.20
2023-03-26T11:18:19.337Z,9.00
2023-03-26T11:21:19.315Z,8.05
2023-03-26T11:24:06.376Z,7.63
2023-03-26T11:26:45.153Z,5.57
2023-03-26T11:29:31.356Z,6.15
2023-03-26T11:32:06.502Z,6.63
2023-03-26T11:35:06.164Z,6.05
2023-03-26T11:37:35.547Z,6.65
2023-03-26T11:40:11.578Z,6.03
2023-03-26T11:42:38.349Z,6.70
2023-03-26T11:45:07.281Z,6.82
2023-03-26T11:47:46.090Z,7.35
2023-03-26T11:50:28.170Z,5.03
2023-03-26T11:52:59.539Z,6.43
2023-03-26T11:55:27.686Z,4.55
2023-03-26T11:57:56.079Z,5.57
2023-03-26T12:00:27.691Z,5.45
2023-03-26T12:02:59.285Z,4.20
2023-03-26T12:05:31.415Z,4.65
2023-03-26T12:08:18.805Z,4.35
2023-03-26T12:10:51.650Z,4.60
2023-03-26T12:13:21.512Z,3.03
2023-03-26T12:15:48.274Z,3.90
2023-03-26T12:18:32.245Z,3.35
2023-03-26T12:21:28.776Z,2.97
2023-03-26T12:24:29.881Z,3.50
2023-03-26T12:27:32.676Z,3.00
2023-03-26T12:30:59.949Z,2.90
2023-03-26T12:36:57.560Z,1.65
2023-03-26T12:40:09.079Z,1.50
2023-03-26T12:44:49.857Z,1.20
2023-03-26T12:47:26.450Z,1.42
2023-03-26T12:48:41.242Z,4.00
2023-03-26T12:51:33.400Z,1.48
2023-03-26T12:54:24.760Z,1.20
2023-03-26T12:57:21.892Z,1.20
2023-03-26T13:00:24.724Z,1.83
2023-03-26T13:03:03.403Z,1.27
2023-03-26T13:05:52.569Z,1.75
2023-03-26T13:08:49.001Z,2.42
2023-03-26T13:11:45.438Z,2.50
2023-03-26T13:14:43.499Z,2.25
2023-03-26T13:17:37.480Z,2.35
2023-03-26T13:20:46.282Z,2.33
2023-03-26T13:23:24.158Z,2.70
2023-03-26T13:26:18.382Z,2.13
2023-03-26T13:28:47.746Z,2.45
2023-03-26T13:31:17.230Z,2.75
2023-03-26T13:34:27.160Z,2.78
2023-03-26T13:40:58.516Z,2.67
2023-03-26T13:46:28.496Z,3.15
2023-03-26T13:46:59.556Z,2.53
2023-03-26T13:49:50.521Z,1.75
2023-03-26T13:52:55.695Z,3.45
2023-03-26T13:55:37.625Z,2.05
2023-03-26T13:58:38.977Z,2.72
2023-03-26T14:01:12.700Z,2.40
2023-03-26T14:04:13.132Z,2.25
2023-03-26T14:06:42.560Z,2.50
2023-03-26T14:09:59.140Z,2.30
2023-03-26T14:12:49.018Z,2.38
2023-03-26T14:15:37.354Z,2.00
2023-03-26T14:18:20.107Z,2.05
2023-03-26T14:20:47.674Z,2.80
2023-03-26T14:23:28.569Z,2.70
2023-03-26T14:26:13.820Z,2.00
2023-03-26T14:28:43.441Z,2.50
2023-03-26T14:31:23.715Z,2.40
2023-03-26T14:34:04.895Z,2.20
2023-03-26T14:36:46.496Z,2.35
2023-03-26T14:39:29.032Z,2.13
2023-03-26T14:42:03.110Z,2.47
2023-03-26T14:44:49.073Z,2.35
2023-03-26T14:47:20.899Z,2.75
2023-03-26T14:50:26.693Z,2.30
2023-03-26T14:53:01.235Z,5.05
2023-03-26T14:55:50.674Z,3.45
2023-03-26T14:58:38.822Z,2.30
2023-03-26T15:01:17.951Z,2.53
2023-03-26T15:04:20.000Z,3.15
2023-03-26T15:06:49.332Z,2.28
2023-03-26T15:09:24.967Z,3.38
2023-03-26T15:12:17.780Z,3.00
2023-03-26T15:15:30.478Z,2.78
2023-03-26T15:18:00.453Z,3.65
2023-03-26T15:20:33.612Z,2.80
2023-03-26T15:23:47.357Z,2.40
2023-03-26T15:26:51.420Z,3.03
2023-03-26T15:29:21.700Z,3.15
2023-03-26T15:32:14.094Z,3.17
2023-03-26T15:34:58.978Z,3.47
2023-03-26T15:37:31.515Z,3.53
2023-03-26T15:40:30.271Z,2.85
2023-03-26T15:43:16.309Z,3.70
2023-03-26T15:46:22.646Z,3.50
2023-03-26T15:48:57.887Z,2.72
2023-03-26T15:54:02.102Z,3.22
2023-03-26T15:57:01.471Z,2.20
2023-03-26T15:59:31.687Z,2.58
2023-03-26T16:02:30.214Z,2.72
2023-03-26T16:05:03.341Z,2.40
2023-03-26T16:07:39.247Z,3.47
2023-03-26T16:10:28.085Z,3.60
2023-03-26T16:13:22.470Z,3.45
2023-03-26T16:15:56.401Z,4.50
2023-03-26T16:18:32.366Z,3.63
2023-03-26T16:21:32.788Z,5.35
2023-03-26T16:24:02.759Z,4.80
2023-03-26T16:26:44.770Z,3.70
2023-03-26T16:29:14.653Z,6.07
2023-03-26T16:32:07.650Z,4.35
2023-03-26T16:34:42.233Z,4.45
2023-03-26T16:37:35.712Z,5.47
2023-03-26T16:40:30.327Z,4.60
2023-03-26T16:43:32.269Z,4.10
2023-03-26T16:46:29.960Z,4.40
2023-03-26T16:49:18.781Z,5.80
2023-03-26T16:52:21.103Z,5.82
2023-03-26T16:54:57.406Z,6.10
2023-03-26T16:57:30.540Z,4.80
2023-03-26T17:00:13.852Z,5.38
2023-03-26T17:03:17.924Z,6.50
2023-03-26T17:05:58.770Z,6.18
2023-03-26T17:09:18.754Z,6.47
2023-03-26T17:12:08.139Z,5.70
2023-03-26T17:14:51.897Z,3.15
2023-03-26T17:17:27.677Z,3.55
2023-03-26T17:20:23.651Z,4.40
2023-03-26T17:23:24.554Z,3.38
2023-03-26T17:30:07.621Z,3.40
2023-03-26T17:36:15.087Z,3.88
2023-03-26T17:38:47.684Z,3.42
2023-03-26T17:41:35.644Z,3.75
2023-03-26T17:44:24.492Z,4.10
2023-03-26T17:54:47.491Z,6.00
2023-03-26T18:01:03.857Z,9.02
2023-03-26T18:03:34.680Z,9.60
2023-03-26T18:06:48.756Z,9.65
2023-03-26T18:10:05.622Z,9.25
2023-03-26T18:12:43.357Z,8.88
2023-03-26T18:15:40.387Z,8.60
2023-03-26T18:18:20.723Z,8.02
2023-03-26T18:20:49.285Z,8.27
2023-03-26T18:23:25.958Z,8.57
2023-03-26T18:25:59.492Z,9.75
2023-03-26T18:28:31.493Z,9.57
2023-03-26T18:31:08.455Z,10.23
2023-03-26T18:33:49.524Z,8.75
2023-03-26T18:36:18.735Z,10.40
2023-03-26T18:38:46.891Z,11.73
2023-03-26T18:41:30.829Z,9.60
2023-03-26T18:44:02.746Z,10.05
2023-03-26T18:46:29.484Z,8.85
2023-03-26T18:48:57.051Z,7.38
2023-03-26T18:51:26.145Z,7.60
2023-03-26T18:53:56.365Z,8.20
2023-03-26T18:56:26.140Z,6.65
2023-03-26T18:58:52.923Z,7.90
2023-03-26T19:01:25.943Z,6.80
2023-03-26T19:03:53.866Z,7.15
2023-03-26T19:06:21.068Z,6.55
2023-03-26T19:08:48.198Z,7.38
2023-03-26T19:11:17.020Z,5.55
2023-03-26T19:13:44.058Z,5.90
2023-03-26T19:16:21.298Z,6.10
2023-03-26T19:18:48.575Z,6.07
2023-03-26T19:21:16.143Z,6.45
2023-03-26T19:23:42.936Z,6.90
2023-03-26T19:26:10.535Z,5.35
2023-03-26T19:28:50.934Z,7.55
2023-03-26T19:31:27.246Z,5.57
2023-03-26T19:33:58.054Z,6.10
2023-03-26T19:36:29.727Z,6.40
2023-03-26T19:38:59.106Z,7.38
2023-03-26T19:41:34.581Z,7.60
2023-03-26T19:44:03.822Z,6.97
2023-03-26T19:46:33.682Z,6.72
2023-03-26T19:49:05.718Z,6.78
2023-03-26T19:51:34.620Z,6.30
2023-03-26T19:54:04.535Z,5.90
2023-03-26T19:56:39.496Z,6.03
2023-03-26T19:59:11.500Z,6.65
2023-03-26T20:01:38.331Z,4.60
2023-03-26T20:04:06.665Z,5.95
2023-03-26T20:09:25.649Z,4.90
2023-03-26T20:11:56.768Z,5.45
2023-03-26T20:14:30.919Z,5.32
2023-03-26T20:17:04.885Z,4.82
2023-03-26T20:19:41.962Z,4.82
2023-03-26T20:22:22.535Z,4.80
2023-03-26T20:24:51.413Z,4.72
2023-03-26T20:27:26.248Z,4.97
2023-03-26T20:33:12.416Z,3.60
2023-03-26T20:35:35.896Z,4.68
2023-03-26T20:38:17.041Z,4.70
2023-03-26T20:40:54.883Z,5.68
2023-03-26T20:43:29.331Z,5.28
2023-03-26T20:45:59.392Z,3.80
2023-03-26T20:48:56.451Z,4.80
2023-03-26T20:51:31.616Z,4.72
2023-03-26T20:54:37.960Z,5.72
2023-03-26T20:57:17.550Z,4.85
2023-03-26T20:59:47.967Z,4.47
2023-03-26T21:02:14.684Z,4.60
2023-03-26T21:04:41.650Z,5.03
2023-03-26T21:07:17.694Z,5.20
2023-03-26T21:09:47.411Z,4.43
2023-03-26T21:12:23.550Z,4.32
2023-03-26T21:14:51.168Z,5.18
2023-03-26T21:17:23.237Z,5.75
2023-03-26T21:19:58.873Z,7.45
2023-03-26T21:22:56.456Z,6.07
2023-03-26T21:26:22.624Z,6.55
2023-03-26T21:28:49.953Z,5.75
2023-03-26T21:31:21.076Z,5.85
2023-03-26T21:33:49.513Z,6.15
2023-03-26T21:36:18.473Z,4.90
2023-03-26T21:38:46.054Z,4.80
2023-03-26T21:41:24.854Z,5.20
2023-03-26T21:43:51.876Z,5.43
2023-03-26T21:46:19.075Z,5.13
2023-03-26T21:48:45.975Z,4.10
2023-03-26T21:51:14.858Z,5.32
2023-03-26T21:53:42.594Z,5.20
2023-03-26T21:56:47.666Z,3.97
2023-03-26T21:59:51.535Z,4.45
2023-03-26T22:02:30.706Z,4.65
2023-03-26T22:05:19.206Z,5.50
2023-03-26T22:08:01.948Z,5.28
2023-03-26T22:10:29.484Z,4.90
2023-03-26T22:12:56.138Z,6.18
2023-03-26T22:15:23.983Z,4.97
2023-03-26T22:17:54.191Z,5.20
2023-03-26T22:20:24.463Z,4.72
2023-03-26T22:22:53.265Z,5.43
2023-03-26T22:25:21.219Z,4.70
2023-03-26T22:27:48.906Z,5.85
2023-03-26T22:30:16.466Z,5.00
2023-03-26T22:32:45.968Z,4.25
2023-03-26T22:35:13.119Z,5.35
2023-03-26T22:37:40.548Z,5.43
2023-03-26T22:40:08.850Z,4.78
2023-03-26T22:42:36.188Z,4.65
2023-03-26T22:45:04.267Z,4.53
2023-03-26T22:47:33.814Z,4.68
2023-03-26T22:50:00.854Z,5.45
2023-03-26T22:52:28.193Z,4.57
2023-03-26T22:54:54.884Z,5.40
2023-03-26T22:57:24.445Z,4.65
2023-03-26T22:59:52.068Z,4.97
2023-03-26T23:02:19.175Z,4.85
2023-03-26T23:04:46.481Z,5.47
2023-03-26T23:07:13.321Z,4.82
2023-03-26T23:09:39.985Z,5.38
2023-03-26T23:12:06.784Z,5.55
2023-03-26T23:14:33.432Z,4.13
2023-03-26T23:17:01.535Z,4.50
2023-03-26T23:19:30.202Z,4.32
2023-03-26T23:21:57.594Z,5.22
2023-03-26T23:24:26.633Z,5.28
2023-03-26T23:26:53.468Z,5.47
2023-03-26T23:29:20.369Z,5.13
2023-03-26T23:31:47.433Z,5.05
2023-03-26T23:34:15.381Z,5.00
2023-03-26T23:36:42.450Z,5.88
2023-03-26T23:39:09.341Z,5.82
2023-03-26T23:41:36.906Z,4.32
2023-03-26T23:44:04.228Z,5.10
2023-03-26T23:46:33.572Z,4.57
2023-03-26T23:49:02.458Z,5.35
2023-03-26T23:51:30.402Z,5.65
2023-03-26T23:53:57.281Z,5.50
2023-03-26T23:56:24.158Z,5.40
2023-03-26T23:58:50.925Z,4.55
